Ackley, IA (50601)

4:12 PM CDT on July 25, 2016 (GMT -0500)
Jensen Farm | | Change Station

Elev 1129 ft 42.50 °N, 93.20 °W | Updated 21 seconds ago

Clear
Clear
82.9 °F
Feels Like 83 °F
N
5.0
Wind Variable Wind from NW
Gusts 11.0 mph

Today
High -- | Low -- °F
--% Chance of Precip.
Yesterday
High -- | Low -- °F
Precip. -- in
Pressure 30.08 in
Visibility 10.0 miles
Clouds Clear
Heat Index 83 °F
Dew Point 60 °F
Humidity 46%
Rainfall 0.00 in
Snow Depth Not available.
5:57 AM 8:39 PM
Waning Gibbous, 62% visible
METAR KIFA 252055Z AUTO 35006KT 10SM CLR 30/17 A3008 RMK AO2 T02950173
Pressure 30.08 in
Visibility 10.0 miles
Clouds Clear
Heat Index 83 °F
Dew Point 60 °F
Humidity 46%
Rainfall 0.00 in
Snow Depth Not available.
5:57 AM 8:39 PM
Waning Gibbous, 62% visible
METAR KIFA 252055Z AUTO 35006KT 10SM CLR 30/17 A3008 RMK AO2 T02950173

10-Day Weather Forecast

Almanac

Astronomy

Jul. 25, 2016 Rise Set
Actual Time
Civil Twilight
Nautical Twilight
Astronomical Twilight
Moon
Length of Visible Light
Length of Day
Tomorrow will be .
, % of the Moon is Illuminated

Today's Extremes

State Highs State Lows

Community

WunderPhotos

Upload Photos

1,927,423 photos uploaded!

WunderBlog® & News

Nearby

Air Quality

  Air Quality AQ Index Pollutant
Not available.

Snow Depth

Station Depth Elevation

Earthquake Activity

City Distance Mag. Time & Date
Minimum magnitude displayed is 2.5.

Coastal Water Temperatures

Place Temperature

Stations

Nearby Weather Stations

Station Location Temp. Windchill Dew Point Humidity Wind Precip. Elev Updated Type
                   

Watches & Warnings

There are currently no watches in effect.